createdAt,value
2019-03-11T00:00:32.770Z,53.14
2019-03-11T00:03:04.367Z,53.89
2019-03-11T00:05:38.992Z,53.90
2019-03-11T00:08:12.129Z,54.16
2019-03-11T00:10:44.710Z,54.16
2019-03-11T00:13:16.283Z,54.06
2019-03-11T00:15:49.513Z,53.95
2019-03-11T00:18:21.083Z,54.10
2019-03-11T00:20:53.668Z,54.17
2019-03-11T00:23:25.294Z,53.93
2019-03-11T00:26:01.647Z,54.17
2019-03-11T00:28:34.834Z,54.36
2019-03-11T00:31:06.389Z,54.74
2019-03-11T00:33:38.072Z,54.38
2019-03-11T00:36:16.087Z,54.47
2019-03-11T00:38:50.553Z,54.56
2019-03-11T00:41:20.955Z,54.52
2019-03-11T00:43:52.522Z,54.96
2019-03-11T00:46:30.659Z,54.85
2019-03-11T00:49:02.301Z,54.77
2019-03-11T00:51:36.184Z,55.02
2019-03-11T00:54:09.099Z,55.22
2019-03-11T00:56:42.339Z,55.11
2019-03-11T00:59:16.137Z,55.01
2019-03-11T01:01:47.702Z,54.98
2019-03-11T01:04:22.010Z,55.01
2019-03-11T01:06:53.569Z,54.84
2019-03-11T01:09:25.103Z,55.13
2019-03-11T01:11:58.853Z,55.61
2019-03-11T01:14:30.398Z,55.40
2019-03-11T01:17:03.658Z,55.31
2019-03-11T01:19:35.234Z,55.81
2019-03-11T01:22:06.799Z,55.59
2019-03-11T01:24:38.387Z,55.68
2019-03-11T01:27:11.598Z,55.59
2019-03-11T01:29:43.171Z,55.48
2019-03-11T01:32:16.809Z,55.48
2019-03-11T01:34:48.394Z,55.32
2019-03-11T01:37:19.941Z,55.71
2019-03-11T01:39:51.532Z,55.73
2019-03-11T01:42:25.198Z,55.90
2019-03-11T01:44:57.762Z,55.45
2019-03-11T01:47:34.413Z,55.88
2019-03-11T01:50:07.755Z,55.67
2019-03-11T01:52:47.795Z,55.72
2019-03-11T01:55:19.374Z,55.86
2019-03-11T01:57:50.912Z,56.07
2019-03-11T02:00:26.569Z,56.33
2019-03-11T02:02:58.047Z,55.95
2019-03-11T02:05:29.687Z,56.40
2019-03-11T02:08:01.260Z,56.73
2019-03-11T02:10:36.521Z,56.86
2019-03-11T02:13:11.404Z,56.77
2019-03-11T02:15:43.100Z,57.04
2019-03-11T02:18:16.417Z,56.94
2019-03-11T02:20:47.909Z,57.02
2019-03-11T02:23:19.477Z,56.97
2019-03-11T02:25:51.029Z,56.18
2019-03-11T02:28:22.594Z,56.65
2019-03-11T02:30:54.174Z,56.91
2019-03-11T02:33:25.735Z,57.10
2019-03-11T02:36:07.796Z,56.74
2019-03-11T02:38:42.397Z,57.08
2019-03-11T02:41:15.643Z,57.39
2019-03-11T02:43:47.180Z,57.85
2019-03-11T02:46:21.865Z,58.15
2019-03-11T02:48:54.881Z,57.87
2019-03-11T02:51:31.359Z,58.02
2019-03-11T02:54:09.215Z,58.14
2019-03-11T02:56:44.057Z,58.52
2019-03-11T02:59:21.539Z,58.43
2019-03-11T03:02:21.084Z,58.08
2019-03-11T03:05:04.260Z,58.16
2019-03-11T03:07:38.796Z,58.41
2019-03-11T03:10:10.764Z,58.18
2019-03-11T03:12:42.298Z,58.28
2019-03-11T03:15:16.750Z,57.93
2019-03-11T03:17:48.295Z,58.29
2019-03-11T03:20:20.151Z,58.32
2019-03-11T03:22:51.722Z,58.74
2019-03-11T03:25:33.947Z,58.94
2019-03-11T03:27:56.662Z,58.75
2019-03-11T03:30:28.340Z,58.84
2019-03-11T03:33:00.178Z,58.95
2019-03-11T03:35:31.730Z,59.14
2019-03-11T03:38:03.539Z,59.25
2019-03-11T03:40:35.396Z,59.27
2019-03-11T03:43:07.569Z,59.25
2019-03-11T03:45:44.082Z,60.96
2019-03-11T03:48:16.251Z,60.79
2019-03-11T03:50:48.070Z,61.13
2019-03-11T03:53:19.633Z,62.41
2019-03-11T03:55:53.006Z,61.81
2019-03-11T03:58:24.534Z,66.40
2019-03-11T04:00:56.397Z,66.92
2019-03-11T04:03:27.918Z,68.11
2019-03-11T04:05:59.789Z,67.63
2019-03-11T04:08:31.322Z,68.13
2019-03-11T04:11:02.922Z,67.79
2019-03-11T04:13:34.419Z,67.80
2019-03-11T04:16:05.969Z,67.90
2019-03-11T04:18:57.419Z,68.41
2019-03-11T04:21:28.941Z,68.19
2019-03-11T04:24:01.879Z,69.38
2019-03-11T04:26:33.440Z,68.98
2019-03-11T04:29:05.265Z,69.55
2019-03-11T04:31:36.837Z,70.04
2019-03-11T04:34:08.415Z,70.03
2019-03-11T04:36:39.960Z,70.21
2019-03-11T04:39:11.786Z,69.71
2019-03-11T04:41:43.657Z,70.08
2019-03-11T04:44:15.233Z,70.35
2019-03-11T04:46:46.786Z,70.13
2019-03-11T04:49:18.389Z,70.57
2019-03-11T04:51:49.934Z,71.06
2019-03-11T04:54:21.479Z,71.27
2019-03-11T04:56:53.027Z,71.71
2019-03-11T04:59:24.625Z,70.86
2019-03-11T05:01:56.210Z,70.88
2019-03-11T05:04:27.931Z,70.78
2019-03-11T05:06:59.478Z,70.50
2019-03-11T05:09:31.150Z,70.72
2019-03-11T05:12:02.699Z,70.65
2019-03-11T05:14:34.296Z,70.73
2019-03-11T05:17:08.877Z,70.61
2019-03-11T05:19:40.731Z,70.61
2019-03-11T05:22:12.279Z,71.01
2019-03-11T05:24:43.840Z,70.91
2019-03-11T05:27:15.428Z,71.19
2019-03-11T05:29:46.959Z,70.93
2019-03-11T05:32:18.786Z,71.23
2019-03-11T05:34:50.980Z,71.41
2019-03-11T05:37:22.474Z,70.99
2019-03-11T05:39:54.346Z,71.23
2019-03-11T05:42:27.936Z,71.49
2019-03-11T05:44:59.521Z,71.71
2019-03-11T05:47:31.350Z,71.66
2019-03-11T05:50:03.409Z,71.61
2019-03-11T05:52:35.214Z,71.14
2019-03-11T05:55:07.742Z,70.88
2019-03-11T05:57:39.560Z,70.38
2019-03-11T06:00:19.658Z,70.41
2019-03-11T06:02:51.228Z,69.91
2019-03-11T06:05:23.098Z,69.19
2019-03-11T06:07:57.554Z,68.29
2019-03-11T06:10:29.400Z,67.77
2019-03-11T06:13:05.352Z,67.01
2019-03-11T06:15:40.383Z,66.45
2019-03-11T06:18:12.234Z,65.78
2019-03-11T06:20:53.588Z,64.27
2019-03-11T06:23:25.158Z,64.35
2019-03-11T06:25:58.384Z,63.83
2019-03-11T06:28:34.859Z,63.99
2019-03-11T06:31:09.422Z,64.32
2019-03-11T06:33:41.012Z,64.54
2019-03-11T06:36:15.775Z,64.67
2019-03-11T06:38:52.195Z,65.20
2019-03-11T06:41:24.006Z,65.39
2019-03-11T06:43:56.004Z,65.53
2019-03-11T06:46:27.830Z,65.84
2019-03-11T06:49:08.310Z,65.98
2019-03-11T06:51:41.470Z,65.39
2019-03-11T06:54:17.817Z,65.94
2019-03-11T06:56:50.497Z,66.35
2019-03-11T06:59:22.078Z,66.68
2019-03-11T07:01:53.787Z,66.43
2019-03-11T07:04:25.345Z,66.75
2019-03-11T07:06:56.901Z,69.64
2019-03-11T07:09:30.168Z,73.10
2019-03-11T07:12:01.757Z,75.13
2019-03-11T07:14:35.751Z,76.29
2019-03-11T07:17:09.057Z,77.02
2019-03-11T07:19:42.181Z,77.77
2019-03-11T07:22:24.288Z,78.02
2019-03-11T07:25:08.089Z,78.49
2019-03-11T07:27:39.919Z,79.19
2019-03-11T07:30:12.983Z,79.52
2019-03-11T07:32:44.800Z,79.63
2019-03-11T07:35:16.623Z,80.44
2019-03-11T07:37:48.442Z,81.44
2019-03-11T07:40:29.830Z,81.56
2019-03-11T07:42:57.677Z,81.90
2019-03-11T07:45:31.702Z,82.24
2019-03-11T07:48:06.391Z,82.44
2019-03-11T07:50:38.203Z,82.56
2019-03-11T07:53:10.044Z,82.47
2019-03-11T07:55:41.842Z,82.43
2019-03-11T07:58:20.766Z,81.98
2019-03-11T08:00:54.137Z,81.78
2019-03-11T08:03:27.169Z,81.24
2019-03-11T08:06:01.064Z,80.57
2019-03-11T08:08:32.900Z,80.32
2019-03-11T08:11:09.113Z,79.22
2019-03-11T08:13:43.989Z,79.11
2019-03-11T08:16:15.795Z,78.68
2019-03-11T08:18:48.943Z,78.42
2019-03-11T08:21:22.104Z,78.36
2019-03-11T08:23:55.462Z,78.57
2019-03-11T08:26:28.981Z,77.74
2019-03-11T08:29:03.444Z,77.79
2019-03-11T08:31:35.275Z,77.30
2019-03-11T08:34:07.111Z,76.63
2019-03-11T08:36:41.763Z,76.48
2019-03-11T08:39:13.600Z,76.51
2019-03-11T08:41:45.207Z,75.93
2019-03-11T08:44:16.740Z,75.01
2019-03-11T08:46:48.289Z,73.82
2019-03-11T08:49:20.140Z,73.91
2019-03-11T08:51:51.725Z,74.04
2019-03-11T08:54:23.270Z,73.43
2019-03-11T08:56:55.128Z,74.46
2019-03-11T08:59:26.970Z,75.37
2019-03-11T09:02:04.016Z,75.54
2019-03-11T09:04:35.597Z,75.87
2019-03-11T09:07:09.847Z,76.32
2019-03-11T09:09:41.412Z,76.87
2019-03-11T09:12:13.216Z,76.95
2019-03-11T09:14:44.903Z,76.90
2019-03-11T09:17:17.562Z,76.59
2019-03-11T09:19:49.386Z,76.22
2019-03-11T09:22:25.428Z,76.27
2019-03-11T09:24:57.016Z,75.66
2019-03-11T09:27:32.447Z,75.10
2019-03-11T09:30:07.496Z,74.66
2019-03-11T09:32:39.416Z,74.41
2019-03-11T09:35:11.164Z,74.80
2019-03-11T09:37:45.042Z,73.76
2019-03-11T09:40:19.025Z,73.97
2019-03-11T09:42:52.242Z,74.26
2019-03-11T09:45:24.389Z,73.04
2019-03-11T09:47:56.158Z,72.53
2019-03-11T09:50:27.703Z,72.32
2019-03-11T09:52:59.257Z,71.35
2019-03-11T09:55:30.844Z,71.32
2019-03-11T09:58:02.442Z,70.34
2019-03-11T10:00:34.055Z,71.32
2019-03-11T10:03:10.728Z,71.16
2019-03-11T10:05:43.525Z,70.49
2019-03-11T10:08:15.239Z,69.63
2019-03-11T10:10:46.917Z,68.69
2019-03-11T10:13:21.494Z,67.53
2019-03-11T10:15:54.193Z,66.88
2019-03-11T10:18:29.401Z,67.68
2019-03-11T10:21:02.680Z,66.83
2019-03-11T10:23:34.250Z,67.16
2019-03-11T10:26:08.823Z,67.31
2019-03-11T10:28:46.246Z,67.72
2019-03-11T10:31:21.202Z,65.70
2019-03-11T10:33:52.755Z,65.35
2019-03-11T10:36:27.890Z,66.27
2019-03-11T10:38:59.446Z,65.65
2019-03-11T10:41:37.526Z,66.16
2019-03-11T10:44:09.833Z,64.13
2019-03-11T10:46:44.997Z,62.68
2019-03-11T10:49:17.670Z,63.38
2019-03-11T10:51:52.344Z,61.41
2019-03-11T10:54:24.074Z,61.93
2019-03-11T10:56:58.627Z,63.53
2019-03-11T10:59:31.682Z,65.24
2019-03-11T11:02:03.248Z,66.10
2019-03-11T11:04:34.849Z,67.56
2019-03-11T11:07:06.511Z,67.03
2019-03-11T11:09:42.976Z,68.07
2019-03-11T11:12:15.704Z,68.74
2019-03-11T11:14:47.235Z,68.71
2019-03-11T11:17:25.893Z,68.31
2019-03-11T11:20:03.554Z,67.88
2019-03-11T11:22:34.554Z,67.94
2019-03-11T11:25:07.228Z,66.87
2019-03-11T11:27:38.894Z,66.21
2019-03-11T11:30:18.067Z,64.68
2019-03-11T11:32:49.775Z,66.83
2019-03-11T11:35:21.636Z,66.57
2019-03-11T11:37:56.231Z,66.29
2019-03-11T11:40:30.153Z,65.64
2019-03-11T11:43:03.029Z,67.41
2019-03-11T11:45:34.819Z,67.24
2019-03-11T11:48:09.406Z,65.94
2019-03-11T11:50:43.322Z,67.85
2019-03-11T11:53:17.379Z,67.13
2019-03-11T11:55:57.374Z,66.94
2019-03-11T11:58:27.887Z,67.53
2019-03-11T12:00:59.441Z,67.73
2019-03-11T12:03:32.534Z,66.15
2019-03-11T12:06:06.696Z,65.03
2019-03-11T12:08:41.056Z,65.40
2019-03-11T12:11:12.635Z,65.42
2019-03-11T12:13:44.175Z,63.75
2019-03-11T12:16:15.728Z,62.18
2019-03-11T12:18:49.153Z,62.23
2019-03-11T12:21:23.484Z,61.78
2019-03-11T12:23:55.086Z,60.94
2019-03-11T12:26:28.293Z,62.78
2019-03-11T12:29:04.227Z,62.74
2019-03-11T12:31:37.855Z,60.40
2019-03-11T12:34:14.365Z,60.82
2019-03-11T12:36:45.937Z,60.26
2019-03-11T12:39:21.387Z,62.84
2019-03-11T12:41:54.567Z,63.36
2019-03-11T12:44:28.863Z,63.78
2019-03-11T12:47:00.386Z,64.06
2019-03-11T12:49:34.045Z,62.04
2019-03-11T12:52:05.622Z,62.43
2019-03-11T12:54:37.152Z,61.36
2019-03-11T12:57:18.484Z,60.09
2019-03-11T12:59:51.154Z,59.54
2019-03-11T13:02:25.952Z,58.68
2019-03-11T13:05:01.237Z,57.40
2019-03-11T13:07:34.401Z,58.46
2019-03-11T13:10:08.502Z,58.44
2019-03-11T13:12:42.896Z,59.58
2019-03-11T13:15:17.910Z,55.47
2019-03-11T13:17:52.710Z,55.27
2019-03-11T13:20:35.399Z,56.15
2019-03-11T13:23:10.001Z,54.21
2019-03-11T13:25:45.939Z,56.95
2019-03-11T13:28:23.368Z,56.42
2019-03-11T13:30:58.103Z,57.87
2019-03-11T13:33:29.715Z,58.71
2019-03-11T13:36:01.397Z,56.40
2019-03-11T13:38:34.493Z,58.42
2019-03-11T13:41:07.676Z,57.23
2019-03-11T13:43:53.034Z,57.13
2019-03-11T13:46:21.389Z,56.42
2019-03-11T13:48:58.288Z,57.53
2019-03-11T13:51:30.678Z,57.01
2019-03-11T13:54:05.531Z,55.69
2019-03-11T13:56:37.225Z,56.74
2019-03-11T13:59:08.808Z,57.40
2019-03-11T14:01:41.945Z,56.26
2019-03-11T14:04:13.546Z,55.53
2019-03-11T14:06:48.746Z,56.14
2019-03-11T14:09:22.411Z,55.34
2019-03-11T14:11:54.249Z,55.94
2019-03-11T14:14:30.529Z,56.50
2019-03-11T14:17:02.073Z,55.82
2019-03-11T14:19:37.114Z,55.50
2019-03-11T14:22:08.799Z,55.22
2019-03-11T14:24:43.299Z,54.94
2019-03-11T14:27:16.245Z,54.42
2019-03-11T14:29:47.791Z,49.97
2019-03-11T14:32:24.551Z,52.08
2019-03-11T14:34:57.471Z,49.90
2019-03-11T14:37:34.243Z,50.69
2019-03-11T14:40:06.648Z,50.42
2019-03-11T14:42:38.304Z,51.34
2019-03-11T14:45:12.784Z,51.14
2019-03-11T14:47:44.559Z,51.68
2019-03-11T14:50:18.944Z,54.45
2019-03-11T14:52:53.547Z,55.97
2019-03-11T14:55:25.625Z,57.46
2019-03-11T14:58:00.946Z,58.82
2019-03-11T15:00:35.509Z,58.18
2019-03-11T15:03:07.129Z,58.56
2019-03-11T15:05:43.333Z,58.93
2019-03-11T15:08:15.093Z,58.40
2019-03-11T15:10:46.630Z,57.83
2019-03-11T15:13:18.203Z,56.97
2019-03-11T15:15:55.088Z,57.46
2019-03-11T15:18:26.705Z,56.45
2019-03-11T15:20:58.318Z,56.33
2019-03-11T15:23:32.997Z,55.72
2019-03-11T15:26:05.682Z,54.92
2019-03-11T15:28:38.920Z,53.75
2019-03-11T15:31:12.932Z,53.28
2019-03-11T15:33:46.330Z,52.84
2019-03-11T15:36:17.899Z,52.01
2019-03-11T15:38:49.611Z,52.04
2019-03-11T15:41:21.255Z,51.80
2019-03-11T15:43:53.034Z,50.86
2019-03-11T15:46:24.589Z,51.49
2019-03-11T15:48:56.198Z,51.64
2019-03-11T15:51:36.542Z,51.87
2019-03-11T15:54:03.933Z,53.30
2019-03-11T15:56:35.525Z,57.04
2019-03-11T15:59:08.726Z,59.99
2019-03-11T16:01:40.312Z,62.04
2019-03-11T16:04:11.918Z,62.48
2019-03-11T16:06:45.715Z,63.37
2019-03-11T16:09:19.683Z,64.07
2019-03-11T16:11:50.729Z,64.31
2019-03-11T16:14:22.399Z,64.57
2019-03-11T16:16:54.062Z,63.84
2019-03-11T16:19:25.746Z,63.42
2019-03-11T16:21:57.397Z,62.95
2019-03-11T16:24:31.025Z,63.14
2019-03-11T16:27:02.280Z,61.06
2019-03-11T16:29:38.513Z,60.31
2019-03-11T16:32:12.036Z,59.51
2019-03-11T16:34:44.609Z,58.63
2019-03-11T16:37:16.469Z,58.79
2019-03-11T16:39:48.350Z,59.30
2019-03-11T16:42:23.042Z,58.97
2019-03-11T16:44:54.643Z,59.29
2019-03-11T16:47:27.811Z,58.62
2019-03-11T16:50:02.834Z,59.43
2019-03-11T16:52:34.432Z,59.42
2019-03-11T16:55:09.304Z,60.47
2019-03-11T16:57:40.863Z,60.15
2019-03-11T17:00:22.706Z,60.76
2019-03-11T17:02:54.360Z,60.56
2019-03-11T17:05:25.934Z,60.64
2019-03-11T17:07:57.480Z,61.07
2019-03-11T17:10:32.535Z,60.84
2019-03-11T17:13:04.259Z,61.43
2019-03-11T17:15:35.847Z,62.02
2019-03-11T17:18:07.463Z,62.57
2019-03-11T17:20:39.016Z,63.36
2019-03-11T17:23:10.609Z,63.15
2019-03-11T17:25:42.220Z,63.45
2019-03-11T17:28:13.812Z,63.59
2019-03-11T17:30:45.480Z,63.69
2019-03-11T17:33:17.054Z,63.66
2019-03-11T17:35:48.656Z,62.99
2019-03-11T17:38:20.321Z,63.54
2019-03-11T17:40:51.982Z,63.21
2019-03-11T17:43:23.586Z,63.74
2019-03-11T17:45:55.147Z,64.05
2019-03-11T17:48:26.725Z,64.15
2019-03-11T17:50:58.320Z,63.93
2019-03-11T17:53:29.880Z,63.99
2019-03-11T17:56:01.641Z,63.67
2019-03-11T17:58:33.296Z,64.12
2019-03-11T18:01:05.312Z,64.55
2019-03-11T18:03:37.013Z,64.16
2019-03-11T18:06:11.899Z,63.88
2019-03-11T18:08:42.925Z,63.81
2019-03-11T18:11:14.502Z,63.76
2019-03-11T18:13:46.077Z,63.41
2019-03-11T18:16:17.844Z,62.97
2019-03-11T18:18:51.223Z,62.80
2019-03-11T18:21:23.326Z,61.83
2019-03-11T18:23:54.901Z,60.49
2019-03-11T18:26:29.200Z,60.64
2019-03-11T18:29:09.787Z,60.12
2019-03-11T18:31:44.804Z,59.29
2019-03-11T18:34:16.395Z,58.81
2019-03-11T18:36:48.013Z,58.81
2019-03-11T18:39:19.633Z,59.04
2019-03-11T18:41:51.183Z,59.17
2019-03-11T18:44:25.364Z,58.74
2019-03-11T18:46:56.970Z,58.16
2019-03-11T18:49:28.598Z,58.00
2019-03-11T18:52:00.178Z,58.20
2019-03-11T18:54:31.815Z,57.83
2019-03-11T18:57:03.417Z,57.95
2019-03-11T18:59:36.148Z,57.69
2019-03-11T19:02:08.898Z,56.67
2019-03-11T19:04:40.546Z,57.31
2019-03-11T19:07:12.158Z,56.93
2019-03-11T19:09:43.731Z,57.16
2019-03-11T19:12:15.548Z,57.30
2019-03-11T19:14:47.120Z,56.68
2019-03-11T19:17:18.752Z,56.85
2019-03-11T19:19:50.569Z,57.25
2019-03-11T19:22:22.199Z,58.01
2019-03-11T19:24:53.818Z,57.79
2019-03-11T19:27:27.752Z,57.51
2019-03-11T19:29:59.353Z,57.73
2019-03-11T19:32:38.180Z,57.48
2019-03-11T19:35:11.116Z,57.09
2019-03-11T19:37:42.707Z,57.14
2019-03-11T19:40:19.813Z,56.48
2019-03-11T19:42:54.059Z,56.61
2019-03-11T19:45:25.744Z,56.14
2019-03-11T19:47:57.337Z,56.20
2019-03-11T19:50:28.901Z,55.94
2019-03-11T19:53:00.500Z,56.30
2019-03-11T19:55:32.137Z,56.74
2019-03-11T19:58:03.724Z,56.74
2019-03-11T20:00:37.938Z,56.92
2019-03-11T20:03:22.677Z,56.95
2019-03-11T20:05:45.472Z,57.03
2019-03-11T20:08:20.014Z,56.84
2019-03-11T20:10:53.343Z,57.01
2019-03-11T20:13:24.911Z,56.68
2019-03-11T20:15:56.490Z,56.83
2019-03-11T20:18:33.521Z,56.82
2019-03-11T20:21:08.680Z,56.69
2019-03-11T20:23:40.391Z,57.28
2019-03-11T20:26:12.173Z,57.55
2019-03-11T20:28:49.341Z,57.82
2019-03-11T20:31:21.050Z,58.08
2019-03-11T20:33:54.276Z,57.89
2019-03-11T20:36:25.929Z,57.95
2019-03-11T20:39:00.295Z,58.22
2019-03-11T20:41:35.494Z,58.57
2019-03-11T20:44:07.217Z,58.57
2019-03-11T20:46:41.118Z,58.05
2019-03-11T20:49:21.991Z,57.93
2019-03-11T20:51:53.542Z,57.84
2019-03-11T20:54:25.195Z,58.40
2019-03-11T20:57:00.927Z,58.26
2019-03-11T20:59:31.560Z,58.33
2019-03-11T21:02:03.130Z,58.46
2019-03-11T21:04:34.745Z,58.12
2019-03-11T21:07:06.344Z,58.08
2019-03-11T21:09:40.034Z,58.12
2019-03-11T21:12:11.550Z,57.47
2019-03-11T21:14:45.927Z,57.52
2019-03-11T21:17:25.599Z,57.89
2019-03-11T21:19:54.021Z,57.56
2019-03-11T21:22:25.632Z,57.90
2019-03-11T21:24:59.846Z,57.85
2019-03-11T21:27:33.494Z,57.83
2019-03-11T21:30:05.597Z,57.79
2019-03-11T21:32:40.905Z,57.74
2019-03-11T21:35:15.773Z,58.16
2019-03-11T21:37:51.337Z,58.02
2019-03-11T21:40:27.322Z,58.29
2019-03-11T21:42:59.011Z,58.24
2019-03-11T21:45:34.391Z,57.96
2019-03-11T21:48:03.933Z,58.12
2019-03-11T21:50:35.615Z,58.25
2019-03-11T21:53:11.722Z,58.24
2019-03-11T21:55:47.371Z,58.20
2019-03-11T21:58:19.001Z,58.05
2019-03-11T22:00:50.576Z,57.36
2019-03-11T22:03:22.132Z,57.66
2019-03-11T22:05:56.061Z,57.76
2019-03-11T22:08:28.819Z,57.93
2019-03-11T22:11:01.493Z,57.61
2019-03-11T22:13:33.093Z,57.87
2019-03-11T22:16:05.817Z,57.83
2019-03-11T22:18:42.869Z,57.74
2019-03-11T22:21:17.754Z,58.03
2019-03-11T22:23:52.389Z,57.96
2019-03-11T22:26:23.951Z,57.96
2019-03-11T22:28:55.528Z,57.99
2019-03-11T22:31:27.115Z,58.62
2019-03-11T22:34:00.854Z,57.32
2019-03-11T22:36:32.413Z,57.54
2019-03-11T22:39:06.942Z,57.61
2019-03-11T22:41:38.506Z,58.13
2019-03-11T22:44:10.042Z,58.28
2019-03-11T22:46:41.624Z,58.37
2019-03-11T22:49:15.953Z,58.14
2019-03-11T22:51:47.534Z,58.40
2019-03-11T22:54:19.102Z,58.63
2019-03-11T22:56:57.216Z,58.30
2019-03-11T22:59:34.913Z,58.65
2019-03-11T23:02:11.661Z,58.35
2019-03-11T23:04:43.281Z,58.36
2019-03-11T23:07:14.868Z,58.44
2019-03-11T23:09:47.567Z,59.12
2019-03-11T23:12:21.899Z,59.67
2019-03-11T23:14:56.348Z,59.98
2019-03-11T23:17:27.916Z,59.85
2019-03-11T23:19:59.476Z,60.18
2019-03-11T23:22:31.056Z,59.87
2019-03-11T23:25:04.082Z,60.25
2019-03-11T23:27:35.641Z,60.58
2019-03-11T23:30:08.942Z,61.20
2019-03-11T23:32:40.506Z,61.14
2019-03-11T23:35:16.954Z,60.70
2019-03-11T23:37:48.537Z,60.70
2019-03-11T23:40:20.091Z,60.50
2019-03-11T23:42:54.667Z,60.95
2019-03-11T23:45:27.840Z,60.58
2019-03-11T23:47:59.403Z,61.04
2019-03-11T23:50:33.489Z,60.85
2019-03-11T23:53:06.962Z,60.92
2019-03-11T23:55:46.693Z,60.99
2019-03-11T23:58:19.731Z,61.23
